sensor_id;sensor_type;location;lat;lon;timestamp;temperature;humidity
19263;DHT22;9765;52.354;20.884;2022-08-20T04:21:29;22.30;99.90
19263;DHT22;9765;52.354;20.884;2022-08-20T04:23:56;22.20;99.90
19263;DHT22;9765;52.354;20.884;2022-08-20T04:26:23;22.20;99.90
19263;DHT22;9765;52.354;20.884;2022-08-20T04:28:50;22.20;99.90
19263;DHT22;9765;52.354;20.884;2022-08-20T04:31:20;22.20;99.90
19263;DHT22;9765;52.354;20.884;2022-08-20T04:33:49;22.30;99.90
19263;DHT22;9765;52.354;20.884;2022-08-20T04:36:16;22.40;99.90
19263;DHT22;9765;52.354;20.884;2022-08-20T04:38:44;22.40;99.90
19263;DHT22;9765;52.354;20.884;2022-08-20T04:41:10;22.40;99.90
19263;DHT22;9765;52.354;20.884;2022-08-20T04:43:37;22.50;99.90
19263;DHT22;9765;52.354;20.884;2022-08-20T04:46:05;22.60;99.90
19263;DHT22;9765;52.354;20.884;2022-08-20T04:48:34;22.60;99.90
19263;DHT22;9765;52.354;20.884;2022-08-20T04:51:04;22.60;99.90
19263;DHT22;9765;52.354;20.884;2022-08-20T04:53:31;22.70;99.90
19263;DHT22;9765;52.354;20.884;2022-08-20T04:56:00;22.70;99.90
19263;DHT22;9765;52.354;20.884;2022-08-20T04:58:29;22.70;99.90
19263;DHT22;9765;52.354;20.884;2022-08-20T05:01:01;22.60;99.90
19263;DHT22;9765;52.354;20.884;2022-08-20T05:03:28;22.60;99.90
19263;DHT22;9765;52.354;20.884;2022-08-20T05:05:55;22.60;99.90
19263;DHT22;9765;52.354;20.884;2022-08-20T05:08:24;22.50;99.90
19263;DHT22;9765;52.354;20.884;2022-08-20T05:10:52;22.70;99.90
19263;DHT22;9765;52.354;20.884;2022-08-20T05:13:20;22.50;99.90
19263;DHT22;9765;52.354;20.884;2022-08-20T05:15:47;22.60;99.90
19263;DHT22;9765;52.354;20.884;2022-08-20T05:18:17;22.50;99.90
19263;DHT22;9765;52.354;20.884;2022-08-20T05:20:45;22.50;99.90
19263;DHT22;9765;52.354;20.884;2022-08-20T05:23:13;22.40;99.90
19263;DHT22;9765;52.354;20.884;2022-08-20T05:25:42;22.50;99.90
19263;DHT22;9765;52.354;20.884;2022-08-20T05:28:11;22.50;99.90
19263;DHT22;9765;52.354;20.884;2022-08-20T05:30:43;22.60;99.90
19263;DHT22;9765;52.354;20.884;2022-08-20T05:33:11;22.60;99.90
19263;DHT22;9765;52.354;20.884;2022-08-20T05:35:41;22.60;99.90
19263;DHT22;9765;52.354;20.884;2022-08-20T05:38:11;22.50;99.90
19263;DHT22;9765;52.354;20.884;2022-08-20T05:40:39;22.50;99.90
19263;DHT22;9765;52.354;20.884;2022-08-20T05:43:07;22.50;99.90
19263;DHT22;9765;52.354;20.884;2022-08-20T05:45:36;22.50;99.90
19263;DHT22;9765;52.354;20.884;2022-08-20T05:48:05;22.50;99.90
19263;DHT22;9765;52.354;20.884;2022-08-20T05:50:32;22.50;99.90
19263;DHT22;9765;52.354;20.884;2022-08-20T05:53:00;22.60;99.90
19263;DHT22;9765;52.354;20.884;2022-08-20T05:55:27;22.70;99.90
19263;DHT22;9765;52.354;20.884;2022-08-20T05:57:56;22.70;99.90
19263;DHT22;9765;52.354;20.884;2022-08-20T06:00:23;22.80;99.90
19263;DHT22;9765;52.354;20.884;2022-08-20T06:02:50;22.90;99.90
19263;DHT22;9765;52.354;20.884;2022-08-20T06:05:35;22.90;99.90
19263;DHT22;9765;52.354;20.884;2022-08-20T06:08:04;23.00;99.90
19263;DHT22;9765;52.354;20.884;2022-08-20T06:10:31;23.00;99.90
19263;DHT22;9765;52.354;20.884;2022-08-20T06:12:58;23.10;99.90
19263;DHT22;9765;52.354;20.884;2022-08-20T06:15:24;23.00;99.90
19263;DHT22;9765;52.354;20.884;2022-08-20T06:17:51;23.00;99.90
19263;DHT22;9765;52.354;20.884;2022-08-20T06:20:18;23.00;99.90
19263;DHT22;9765;52.354;20.884;2022-08-20T06:22:46;23.00;99.90
19263;DHT22;9765;52.354;20.884;2022-08-20T06:25:12;23.10;99.90
19263;DHT22;9765;52.354;20.884;2022-08-20T06:27:40;23.10;99.90
19263;DHT22;9765;52.354;20.884;2022-08-20T06:30:09;23.20;99.90
19263;DHT22;9765;52.354;20.884;2022-08-20T06:32:36;23.20;99.90
19263;DHT22;9765;52.354;20.884;2022-08-20T06:35:07;23.20;99.90
19263;DHT22;9765;52.354;20.884;2022-08-20T06:37:36;23.30;99.90
19263;DHT22;9765;52.354;20.884;2022-08-20T06:40:07;23.40;99.90
19263;DHT22;9765;52.354;20.884;2022-08-20T06:42:35;23.40;99.90
19263;DHT22;9765;52.354;20.884;2022-08-20T06:45:06;23.50;99.90
19263;DHT22;9765;52.354;20.884;2022-08-20T06:47:33;23.50;99.90
19263;DHT22;9765;52.354;20.884;2022-08-20T06:50:00;23.50;99.90
19263;DHT22;9765;52.354;20.884;2022-08-20T06:52:27;23.50;99.90
19263;DHT22;9765;52.354;20.884;2022-08-20T06:54:53;23.50;99.90
19263;DHT22;9765;52.354;20.884;2022-08-20T06:57:21;23.50;99.90
19263;DHT22;9765;52.354;20.884;2022-08-20T06:59:48;23.60;99.90
19263;DHT22;9765;52.354;20.884;2022-08-20T07:02:14;23.60;99.90
19263;DHT22;9765;52.354;20.884;2022-08-20T07:04:41;23.60;99.90
19263;DHT22;9765;52.354;20.884;2022-08-20T07:07:14;23.60;99.90
19263;DHT22;9765;52.354;20.884;2022-08-20T07:09:41;23.70;99.90
19263;DHT22;9765;52.354;20.884;2022-08-20T07:12:08;23.70;99.90
19263;DHT22;9765;52.354;20.884;2022-08-20T07:14:36;23.80;99.90
19263;DHT22;9765;52.354;20.884;2022-08-20T07:17:04;23.90;99.90
19263;DHT22;9765;52.354;20.884;2022-08-20T07:19:31;23.80;99.90
19263;DHT22;9765;52.354;20.884;2022-08-20T07:21:58;24.00;99.90
19263;DHT22;9765;52.354;20.884;2022-08-20T07:24:25;23.90;99.90
19263;DHT22;9765;52.354;20.884;2022-08-20T07:26:51;24.10;99.90
19263;DHT22;9765;52.354;20.884;2022-08-20T07:29:18;24.30;99.90
19263;DHT22;9765;52.354;20.884;2022-08-20T07:31:46;24.50;99.90
19263;DHT22;9765;52.354;20.884;2022-08-20T07:34:30;24.50;99.90
19263;DHT22;9765;52.354;20.884;2022-08-20T07:36:58;24.70;99.90
19263;DHT22;9765;52.354;20.884;2022-08-20T07:39:24;25.00;99.90
19263;DHT22;9765;52.354;20.884;2022-08-20T07:41:51;25.20;99.90
19263;DHT22;9765;52.354;20.884;2022-08-20T07:44:27;25.40;99.90
19263;DHT22;9765;52.354;20.884;2022-08-20T07:46:57;25.50;99.90
19263;DHT22;9765;52.354;20.884;2022-08-20T07:49:24;25.80;99.90
19263;DHT22;9765;52.354;20.884;2022-08-20T07:51:50;26.00;99.90
19263;DHT22;9765;52.354;20.884;2022-08-20T07:54:17;26.10;99.90
19263;DHT22;9765;52.354;20.884;2022-08-20T07:56:44;26.10;99.90
19263;DHT22;9765;52.354;20.884;2022-08-20T07:59:10;26.30;99.90
19263;DHT22;9765;52.354;20.884;2022-08-20T08:01:37;26.40;99.90
19263;DHT22;9765;52.354;20.884;2022-08-20T08:04:05;26.50;99.90
19263;DHT22;9765;52.354;20.884;2022-08-20T08:06:32;26.50;99.90
19263;DHT22;9765;52.354;20.884;2022-08-20T08:09:01;26.50;99.90
19263;DHT22;9765;52.354;20.884;2022-08-20T08:11:30;26.50;99.90
19263;DHT22;9765;52.354;20.884;2022-08-20T08:13:59;26.50;99.90
19263;DHT22;9765;52.354;20.884;2022-08-20T08:16:27;26.80;99.90
19263;DHT22;9765;52.354;20.884;2022-08-20T08:18:55;27.00;99.90
19263;DHT22;9765;52.354;20.884;2022-08-20T08:21:24;27.30;99.90
19263;DHT22;9765;52.354;20.884;2022-08-20T08:23:50;27.50;99.90
19263;DHT22;9765;52.354;20.884;2022-08-20T08:26:17;27.60;99.90
19263;DHT22;9765;52.354;20.884;2022-08-20T08:28:45;27.60;99.90
19263;DHT22;9765;52.354;20.884;2022-08-20T08:31:12;27.50;99.90
19263;DHT22;9765;52.354;20.884;2022-08-20T08:33:39;27.20;99.90
19263;DHT22;9765;52.354;20.884;2022-08-20T08:36:08;27.00;99.90
19263;DHT22;9765;52.354;20.884;2022-08-20T08:38:38;27.00;99.90
19263;DHT22;9765;52.354;20.884;2022-08-20T08:41:10;27.10;99.90
19263;DHT22;9765;52.354;20.884;2022-08-20T08:43:39;27.20;99.90
19263;DHT22;9765;52.354;20.884;2022-08-20T08:46:09;27.10;99.90
19263;DHT22;9765;52.354;20.884;2022-08-20T08:48:39;27.10;99.90
19263;DHT22;9765;52.354;20.884;2022-08-20T08:51:09;27.10;99.90
19263;DHT22;9765;52.354;20.884;2022-08-20T08:53:41;27.10;99.90
19263;DHT22;9765;52.354;20.884;2022-08-20T08:56:10;27.20;99.90
19263;DHT22;9765;52.354;20.884;2022-08-20T08:58:39;27.50;99.90
19263;DHT22;9765;52.354;20.884;2022-08-20T09:01:11;27.60;99.90
19263;DHT22;9765;52.354;20.884;2022-08-20T09:03:39;27.80;99.90
19263;DHT22;9765;52.354;20.884;2022-08-20T09:06:12;28.20;99.90
19263;DHT22;9765;52.354;20.884;2022-08-20T09:08:45;28.40;99.90
19263;DHT22;9765;52.354;20.884;2022-08-20T09:11:14;28.40;99.90
19263;DHT22;9765;52.354;20.884;2022-08-20T09:13:41;28.40;99.90
19263;DHT22;9765;52.354;20.884;2022-08-20T09:16:09;28.40;99.90
19263;DHT22;9765;52.354;20.884;2022-08-20T09:18:36;28.50;99.90
19263;DHT22;9765;52.354;20.884;2022-08-20T09:21:02;28.50;99.90
19263;DHT22;9765;52.354;20.884;2022-08-20T09:23:29;28.40;99.90
19263;DHT22;9765;52.354;20.884;2022-08-20T09:25:57;28.30;99.90
19263;DHT22;9765;52.354;20.884;2022-08-20T09:28:24;28.30;99.90
19263;DHT22;9765;52.354;20.884;2022-08-20T09:30:50;28.40;99.90
19263;DHT22;9765;52.354;20.884;2022-08-20T09:33:17;28.50;99.90
19263;DHT22;9765;52.354;20.884;2022-08-20T09:35:44;28.60;99.90
19263;DHT22;9765;52.354;20.884;2022-08-20T09:38:11;28.80;99.90
19263;DHT22;9765;52.354;20.884;2022-08-20T09:40:38;29.10;99.90
19263;DHT22;9765;52.354;20.884;2022-08-20T09:43:07;29.20;99.90
19263;DHT22;9765;52.354;20.884;2022-08-20T09:45:34;29.20;99.90
19263;DHT22;9765;52.354;20.884;2022-08-20T09:48:00;29.30;99.90
19263;DHT22;9765;52.354;20.884;2022-08-20T09:50:30;29.50;99.90
19263;DHT22;9765;52.354;20.884;2022-08-20T09:52:58;29.50;99.90
19263;DHT22;9765;52.354;20.884;2022-08-20T09:55:32;29.50;99.90
19263;DHT22;9765;52.354;20.884;2022-08-20T09:57:59;29.60;99.90
19263;DHT22;9765;52.354;20.884;2022-08-20T10:00:27;29.70;99.90
19263;DHT22;9765;52.354;20.884;2022-08-20T10:02:54;29.80;99.90
19263;DHT22;9765;52.354;20.884;2022-08-20T10:05:21;29.90;99.90
19263;DHT22;9765;52.354;20.884;2022-08-20T10:07:47;30.10;99.90
19263;DHT22;9765;52.354;20.884;2022-08-20T10:10:14;30.30;99.90
19263;DHT22;9765;52.354;20.884;2022-08-20T10:12:41;30.40;99.90
19263;DHT22;9765;52.354;20.884;2022-08-20T10:15:09;30.20;99.90
19263;DHT22;9765;52.354;20.884;2022-08-20T10:17:38;30.20;99.90
19263;DHT22;9765;52.354;20.884;2022-08-20T10:20:06;30.30;99.90
19263;DHT22;9765;52.354;20.884;2022-08-20T10:22:33;30.40;99.90
19263;DHT22;9765;52.354;20.884;2022-08-20T10:25:00;30.30;99.90
19263;DHT22;9765;52.354;20.884;2022-08-20T10:27:27;30.20;99.90
19263;DHT22;9765;52.354;20.884;2022-08-20T10:29:53;30.20;99.90
19263;DHT22;9765;52.354;20.884;2022-08-20T10:32:20;30.50;99.90
19263;DHT22;9765;52.354;20.884;2022-08-20T10:34:48;30.60;99.90
19263;DHT22;9765;52.354;20.884;2022-08-20T10:37:16;30.70;99.90
19263;DHT22;9765;52.354;20.884;2022-08-20T10:39:44;30.70;99.90
19263;DHT22;9765;52.354;20.884;2022-08-20T10:42:11;30.80;99.90
19263;DHT22;9765;52.354;20.884;2022-08-20T10:44:38;30.80;99.90
19263;DHT22;9765;52.354;20.884;2022-08-20T10:47:17;30.80;99.90
19263;DHT22;9765;52.354;20.884;2022-08-20T10:49:44;30.80;99.90
19263;DHT22;9765;52.354;20.884;2022-08-20T10:52:12;30.90;99.90
19263;DHT22;9765;52.354;20.884;2022-08-20T10:54:39;31.10;99.90
19263;DHT22;9765;52.354;20.884;2022-08-20T10:57:07;31.20;99.90
19263;DHT22;9765;52.354;20.884;2022-08-20T10:59:37;31.30;99.90
19263;DHT22;9765;52.354;20.884;2022-08-20T11:02:04;31.50;99.90
19263;DHT22;9765;52.354;20.884;2022-08-20T11:04:30;31.50;99.90
19263;DHT22;9765;52.354;20.884;2022-08-20T11:06:57;31.60;99.90
19263;DHT22;9765;52.354;20.884;2022-08-20T11:09:27;31.70;99.90
19263;DHT22;9765;52.354;20.884;2022-08-20T11:11:54;31.70;99.90
19263;DHT22;9765;52.354;20.884;2022-08-20T11:14:21;31.60;99.90
19263;DHT22;9765;52.354;20.884;2022-08-20T11:16:47;31.40;99.90
19263;DHT22;9765;52.354;20.884;2022-08-20T11:19:14;31.40;99.90
19263;DHT22;9765;52.354;20.884;2022-08-20T11:21:40;31.40;99.90
19263;DHT22;9765;52.354;20.884;2022-08-20T11:24:07;31.40;99.90
19263;DHT22;9765;52.354;20.884;2022-08-20T11:26:35;31.30;99.90
19263;DHT22;9765;52.354;20.884;2022-08-20T11:29:02;31.20;99.90
19263;DHT22;9765;52.354;20.884;2022-08-20T11:31:29;31.20;99.90
19263;DHT22;9765;52.354;20.884;2022-08-20T11:33:55;31.10;99.90
19263;DHT22;9765;52.354;20.884;2022-08-20T11:36:22;31.10;99.90
19263;DHT22;9765;52.354;20.884;2022-08-20T11:38:50;31.30;99.90
19263;DHT22;9765;52.354;20.884;2022-08-20T11:41:17;31.40;99.90
19263;DHT22;9765;52.354;20.884;2022-08-20T11:43:45;31.60;99.90
19263;DHT22;9765;52.354;20.884;2022-08-20T11:46:12;31.60;99.90
19263;DHT22;9765;52.354;20.884;2022-08-20T11:48:38;31.80;99.90
19263;DHT22;9765;52.354;20.884;2022-08-20T11:51:05;31.90;99.90
19263;DHT22;9765;52.354;20.884;2022-08-20T11:53:33;32.10;99.90
19263;DHT22;9765;52.354;20.884;2022-08-20T11:56:00;32.00;99.90
19263;DHT22;9765;52.354;20.884;2022-08-20T11:58:27;32.00;99.90
19263;DHT22;9765;52.354;20.884;2022-08-20T12:00:55;31.90;99.90
19263;DHT22;9765;52.354;20.884;2022-08-20T12:03:21;31.90;99.90
19263;DHT22;9765;52.354;20.884;2022-08-20T12:05:48;31.90;99.90
19263;DHT22;9765;52.354;20.884;2022-08-20T12:08:16;31.80;99.90
19263;DHT22;9765;52.354;20.884;2022-08-20T12:10:42;31.80;99.90
19263;DHT22;9765;52.354;20.884;2022-08-20T12:13:09;31.80;99.90
19263;DHT22;9765;52.354;20.884;2022-08-20T12:15:36;31.80;99.90
19263;DHT22;9765;52.354;20.884;2022-08-20T12:18:07;32.00;99.90
19263;DHT22;9765;52.354;20.884;2022-08-20T12:20:34;32.00;99.90
19263;DHT22;9765;52.354;20.884;2022-08-20T12:23:02;31.90;99.90
19263;DHT22;9765;52.354;20.884;2022-08-20T12:25:28;31.80;99.90
19263;DHT22;9765;52.354;20.884;2022-08-20T12:27:55;31.70;99.90
19263;DHT22;9765;52.354;20.884;2022-08-20T12:30:23;31.60;99.90
19263;DHT22;9765;52.354;20.884;2022-08-20T12:32:50;31.40;99.90
19263;DHT22;9765;52.354;20.884;2022-08-20T12:35:18;31.20;99.90
19263;DHT22;9765;52.354;20.884;2022-08-20T12:37:45;31.20;99.90
19263;DHT22;9765;52.354;20.884;2022-08-20T12:40:15;31.40;99.90
19263;DHT22;9765;52.354;20.884;2022-08-20T12:42:42;31.40;99.90
19263;DHT22;9765;52.354;20.884;2022-08-20T12:45:10;31.50;99.90
19263;DHT22;9765;52.354;20.884;2022-08-20T12:47:38;31.50;99.90
19263;DHT22;9765;52.354;20.884;2022-08-20T12:50:08;31.40;99.90
19263;DHT22;9765;52.354;20.884;2022-08-20T12:52:36;31.50;99.90
19263;DHT22;9765;52.354;20.884;2022-08-20T12:55:05;31.50;99.90
19263;DHT22;9765;52.354;20.884;2022-08-20T12:57:33;31.50;99.90
19263;DHT22;9765;52.354;20.884;2022-08-20T13:00:07;31.60;99.90
19263;DHT22;9765;52.354;20.884;2022-08-20T13:02:34;31.70;99.90
19263;DHT22;9765;52.354;20.884;2022-08-20T13:05:03;31.80;99.90
19263;DHT22;9765;52.354;20.884;2022-08-20T13:07:30;31.80;99.90
19263;DHT22;9765;52.354;20.884;2022-08-20T13:09:59;31.80;99.90
19263;DHT22;9765;52.354;20.884;2022-08-20T13:12:26;31.80;99.90
19263;DHT22;9765;52.354;20.884;2022-08-20T13:14:53;31.80;99.90
19263;DHT22;9765;52.354;20.884;2022-08-20T13:17:20;31.90;99.90
19263;DHT22;9765;52.354;20.884;2022-08-20T13:19:47;31.80;99.90
19263;DHT22;9765;52.354;20.884;2022-08-20T13:22:14;31.80;99.90
19263;DHT22;9765;52.354;20.884;2022-08-20T13:24:41;31.70;99.90
19263;DHT22;9765;52.354;20.884;2022-08-20T13:27:14;31.80;99.90
19263;DHT22;9765;52.354;20.884;2022-08-20T13:29:45;31.90;99.90
19263;DHT22;9765;52.354;20.884;2022-08-20T13:32:12;31.80;99.90
19263;DHT22;9765;52.354;20.884;2022-08-20T13:34:39;31.80;99.90
19263;DHT22;9765;52.354;20.884;2022-08-20T13:37:11;31.50;99.90
19263;DHT22;9765;52.354;20.884;2022-08-20T13:39:38;31.70;99.90
19263;DHT22;9765;52.354;20.884;2022-08-20T13:42:05;31.70;99.90
19263;DHT22;9765;52.354;20.884;2022-08-20T13:44:33;31.70;99.90
19263;DHT22;9765;52.354;20.884;2022-08-20T13:47:12;31.60;99.90
19263;DHT22;9765;52.354;20.884;2022-08-20T13:49:38;31.70;99.90
19263;DHT22;9765;52.354;20.884;2022-08-20T13:52:05;31.70;99.90
19263;DHT22;9765;52.354;20.884;2022-08-20T13:54:32;31.70;99.90
19263;DHT22;9765;52.354;20.884;2022-08-20T13:57:04;31.80;99.90
19263;DHT22;9765;52.354;20.884;2022-08-20T13:59:35;31.80;99.90
19263;DHT22;9765;52.354;20.884;2022-08-20T14:02:03;31.70;99.90
19263;DHT22;9765;52.354;20.884;2022-08-20T14:04:29;31.70;99.90
19263;DHT22;9765;52.354;20.884;2022-08-20T14:06:56;31.70;99.90
19263;DHT22;9765;52.354;20.884;2022-08-20T14:09:23;31.70;99.90
19263;DHT22;9765;52.354;20.884;2022-08-20T14:11:49;31.60;99.90
19263;DHT22;9765;52.354;20.884;2022-08-20T14:14:16;31.60;99.90
19263;DHT22;9765;52.354;20.884;2022-08-20T14:16:44;31.60;99.90
19263;DHT22;9765;52.354;20.884;2022-08-20T14:19:11;31.60;99.90
19263;DHT22;9765;52.354;20.884;2022-08-20T14:21:37;31.40;99.90
19263;DHT22;9765;52.354;20.884;2022-08-20T14:24:04;31.20;99.90
19263;DHT22;9765;52.354;20.884;2022-08-20T14:26:31;31.10;99.90
19263;DHT22;9765;52.354;20.884;2022-08-20T14:28:57;31.10;99.90
19263;DHT22;9765;52.354;20.884;2022-08-20T14:31:24;31.10;99.90
19263;DHT22;9765;52.354;20.884;2022-08-20T14:33:52;31.10;99.90
19263;DHT22;9765;52.354;20.884;2022-08-20T14:36:18;31.00;99.90
19263;DHT22;9765;52.354;20.884;2022-08-20T14:38:45;30.90;99.90
19263;DHT22;9765;52.354;20.884;2022-08-20T14:41:12;30.80;99.90
19263;DHT22;9765;52.354;20.884;2022-08-20T14:43:38;30.90;99.90
19263;DHT22;9765;52.354;20.884;2022-08-20T14:46:05;30.90;99.90
19263;DHT22;9765;52.354;20.884;2022-08-20T14:48:32;31.00;99.90
19263;DHT22;9765;52.354;20.884;2022-08-20T14:51:00;30.80;99.90
19263;DHT22;9765;52.354;20.884;2022-08-20T14:53:27;30.80;99.90
19263;DHT22;9765;52.354;20.884;2022-08-20T14:55:54;30.80;99.90
19263;DHT22;9765;52.354;20.884;2022-08-20T14:58:20;30.80;99.90
19263;DHT22;9765;52.354;20.884;2022-08-20T15:00:47;30.70;99.90
19263;DHT22;9765;52.354;20.884;2022-08-20T15:03:14;30.70;99.90
19263;DHT22;9765;52.354;20.884;2022-08-20T15:05:40;30.60;99.90
19263;DHT22;9765;52.354;20.884;2022-08-20T15:08:08;30.60;99.90
19263;DHT22;9765;52.354;20.884;2022-08-20T15:10:35;30.60;99.90
19263;DHT22;9765;52.354;20.884;2022-08-20T15:13:03;30.60;99.90
19263;DHT22;9765;52.354;20.884;2022-08-20T15:15:29;30.60;99.90
19263;DHT22;9765;52.354;20.884;2022-08-20T15:17:58;30.60;99.90
19263;DHT22;9765;52.354;20.884;2022-08-20T15:20:27;30.60;99.90
19263;DHT22;9765;52.354;20.884;2022-08-20T15:22:54;30.50;99.90
19263;DHT22;9765;52.354;20.884;2022-08-20T15:25:24;30.40;99.90
19263;DHT22;9765;52.354;20.884;2022-08-20T15:27:54;30.40;99.90
19263;DHT22;9765;52.354;20.884;2022-08-20T15:30:21;30.30;99.90
19263;DHT22;9765;52.354;20.884;2022-08-20T15:32:49;30.30;99.90
19263;DHT22;9765;52.354;20.884;2022-08-20T15:35:16;30.20;99.90
19263;DHT22;9765;52.354;20.884;2022-08-20T15:37:45;30.20;99.90
19263;DHT22;9765;52.354;20.884;2022-08-20T15:40:14;30.20;99.90
19263;DHT22;9765;52.354;20.884;2022-08-20T15:42:42;30.20;99.90
19263;DHT22;9765;52.354;20.884;2022-08-20T15:45:10;29.90;99.90
19263;DHT22;9765;52.354;20.884;2022-08-20T15:47:48;29.90;99.90
19263;DHT22;9765;52.354;20.884;2022-08-20T15:50:24;29.90;99.90
19263;DHT22;9765;52.354;20.884;2022-08-20T15:52:57;29.80;99.90
19263;DHT22;9765;52.354;20.884;2022-08-20T15:55:27;29.80;99.90
19263;DHT22;9765;52.354;20.884;2022-08-20T15:57:59;29.80;99.90
19263;DHT22;9765;52.354;20.884;2022-08-20T16:00:39;29.80;99.90
19263;DHT22;9765;52.354;20.884;2022-08-20T16:03:32;29.80;99.90
19263;DHT22;9765;52.354;20.884;2022-08-20T16:06:05;29.60;99.90
19263;DHT22;9765;52.354;20.884;2022-08-20T16:09:00;29.50;99.90
19263;DHT22;9765;52.354;20.884;2022-08-20T16:11:31;29.40;99.90
19263;DHT22;9765;52.354;20.884;2022-08-20T16:14:12;29.40;99.90
19263;DHT22;9765;52.354;20.884;2022-08-20T16:16:44;29.30;99.90
19263;DHT22;9765;52.354;20.884;2022-08-20T16:19:16;29.10;99.90
19263;DHT22;9765;52.354;20.884;2022-08-20T16:21:45;29.10;99.90
19263;DHT22;9765;52.354;20.884;2022-08-20T16:24:12;29.00;99.90
19263;DHT22;9765;52.354;20.884;2022-08-20T16:26:49;29.00;99.90
19263;DHT22;9765;52.354;20.884;2022-08-20T16:29:21;28.90;99.90
19263;DHT22;9765;52.354;20.884;2022-08-20T16:31:54;28.90;99.90
19263;DHT22;9765;52.354;20.884;2022-08-20T16:34:26;28.90;99.90
19263;DHT22;9765;52.354;20.884;2022-08-20T16:36:59;28.80;99.90
19263;DHT22;9765;52.354;20.884;2022-08-20T16:39:36;28.80;99.90
19263;DHT22;9765;52.354;20.884;2022-08-20T16:42:08;28.70;99.90
19263;DHT22;9765;52.354;20.884;2022-08-20T16:44:39;28.60;99.90
19263;DHT22;9765;52.354;20.884;2022-08-20T16:47:13;28.60;99.90
19263;DHT22;9765;52.354;20.884;2022-08-20T16:49:45;28.50;99.90
19263;DHT22;9765;52.354;20.884;2022-08-20T16:52:13;28.50;99.90
19263;DHT22;9765;52.354;20.884;2022-08-20T16:54:41;28.40;99.90
19263;DHT22;9765;52.354;20.884;2022-08-20T16:57:09;28.20;99.90
19263;DHT22;9765;52.354;20.884;2022-08-20T17:00:00;28.30;99.90
19263;DHT22;9765;52.354;20.884;2022-08-20T17:02:31;28.10;99.90
